createdAt,value
2018-10-11T00:01:02.887Z,19.90
2018-10-11T00:03:34.870Z,19.90
2018-10-11T00:06:05.580Z,20.00
2018-10-11T00:08:36.235Z,20.00
2018-10-11T00:11:13.948Z,20.10
2018-10-11T00:13:44.428Z,20.10
2018-10-11T00:16:14.619Z,20.10
2018-10-11T00:18:45.119Z,20.20
2018-10-11T00:21:15.672Z,20.20
2018-10-11T00:23:46.207Z,20.20
2018-10-11T00:26:17.188Z,20.20
2018-10-11T00:28:50.003Z,20.20
2018-10-11T00:31:20.855Z,20.10
2018-10-11T00:33:51.232Z,20.10
2018-10-11T00:36:21.640Z,20.00
2018-10-11T00:38:51.829Z,20.00
2018-10-11T00:41:22.006Z,19.90
2018-10-11T00:43:52.788Z,19.80
2018-10-11T00:46:23.137Z,19.80
2018-10-11T00:48:53.846Z,19.80
2018-10-11T00:51:24.164Z,19.70
2018-10-11T00:53:54.531Z,19.70
2018-10-11T00:56:25.142Z,19.70
2018-10-11T00:58:55.432Z,19.70
2018-10-11T01:01:25.828Z,19.60
2018-10-11T01:03:56.342Z,19.60
2018-10-11T01:06:26.307Z,19.50
2018-10-11T01:08:57.826Z,19.40
2018-10-11T01:11:28.774Z,19.40
2018-10-11T01:13:59.539Z,19.30
2018-10-11T01:16:30.473Z,19.30
2018-10-11T01:19:01.519Z,19.30
2018-10-11T01:21:33.756Z,19.30
2018-10-11T01:24:04.863Z,19.30
2018-10-11T01:26:35.897Z,19.20
2018-10-11T01:29:06.175Z,19.20
2018-10-11T01:31:36.742Z,19.20
2018-10-11T01:34:06.740Z,19.20
2018-10-11T01:36:36.986Z,19.30
2018-10-11T01:39:07.475Z,19.30
2018-10-11T01:41:40.074Z,19.30
2018-10-11T01:44:10.543Z,19.20
2018-10-11T01:46:40.749Z,19.20
2018-10-11T01:49:11.830Z,19.20
2018-10-11T01:51:42.497Z,19.10
2018-10-11T01:54:12.906Z,19.10
2018-10-11T01:56:43.071Z,19.10
2018-10-11T01:59:13.490Z,19.10
2018-10-11T02:01:44.070Z,19.10
2018-10-11T02:04:14.472Z,19.10
2018-10-11T02:06:44.645Z,19.00
2018-10-11T02:09:15.225Z,19.00
2018-10-11T02:11:46.037Z,19.00
2018-10-11T02:14:16.693Z,19.00
2018-10-11T02:16:46.968Z,18.90
2018-10-11T02:19:17.603Z,18.90
2018-10-11T02:21:48.711Z,18.80
2018-10-11T02:24:19.384Z,18.80
2018-10-11T02:26:50.023Z,18.70
2018-10-11T02:29:20.334Z,18.70
2018-10-11T02:31:51.803Z,18.70
2018-10-11T02:34:21.895Z,18.60
2018-10-11T02:36:52.321Z,18.60
2018-10-11T02:39:24.319Z,18.30
2018-10-11T02:41:54.411Z,18.60
2018-10-11T02:44:24.307Z,18.60
2018-10-11T02:46:54.343Z,18.60
2018-10-11T02:49:25.846Z,18.60
2018-10-11T02:51:57.224Z,18.60
2018-10-11T02:54:29.565Z,18.60
2018-10-11T02:57:04.624Z,18.60
2018-10-11T02:59:38.331Z,18.60
2018-10-11T03:02:14.583Z,18.60
2018-10-11T03:04:46.161Z,18.60
2018-10-11T03:07:17.383Z,18.60
2018-10-11T03:09:48.407Z,18.50
2018-10-11T03:12:18.807Z,18.50
2018-10-11T03:14:48.911Z,18.40
2018-10-11T03:17:19.181Z,18.40
2018-10-11T03:19:49.675Z,18.40
2018-10-11T03:22:20.038Z,18.40
2018-10-11T03:24:50.033Z,18.40
2018-10-11T03:27:22.563Z,18.30
2018-10-11T03:29:53.638Z,18.30
2018-10-11T03:32:26.695Z,18.30
2018-10-11T03:34:57.342Z,18.20
2018-10-11T03:37:27.368Z,18.20
2018-10-11T03:39:57.500Z,18.20
2018-10-11T03:42:30.301Z,18.20
2018-10-11T03:45:02.548Z,18.20
2018-10-11T03:47:32.700Z,18.30
2018-10-11T03:50:02.687Z,18.30
2018-10-11T03:52:33.564Z,18.30
2018-10-11T03:55:04.811Z,18.30
2018-10-11T03:57:37.369Z,18.30
2018-10-11T04:00:10.159Z,18.20
2018-10-11T04:02:41.102Z,18.20
2018-10-11T04:05:12.159Z,18.20
2018-10-11T04:07:43.011Z,18.20
2018-10-11T04:10:15.172Z,18.20
2018-10-11T04:12:45.630Z,18.20
2018-10-11T04:15:16.200Z,18.20
2018-10-11T04:17:46.310Z,18.30
2018-10-11T04:20:16.503Z,18.30
2018-10-11T04:22:46.614Z,18.30
2018-10-11T04:25:16.804Z,18.30
2018-10-11T04:27:46.700Z,18.40
2018-10-11T04:30:16.790Z,18.40
2018-10-11T04:32:46.837Z,18.40
2018-10-11T04:35:16.780Z,18.50
2018-10-11T04:37:46.700Z,18.50
2018-10-11T04:40:18.152Z,18.50
2018-10-11T04:42:49.239Z,18.60
2018-10-11T04:45:19.466Z,18.60
2018-10-11T04:47:49.540Z,18.60
2018-10-11T04:50:19.988Z,18.60
2018-10-11T04:52:49.951Z,18.70
2018-10-11T04:55:20.101Z,18.70
2018-10-11T04:57:50.100Z,18.70
2018-10-11T05:00:25.760Z,18.80
2018-10-11T05:02:58.563Z,18.80
2018-10-11T05:05:28.831Z,18.80
2018-10-11T05:07:59.368Z,18.90
2018-10-11T05:10:29.859Z,18.90
2018-10-11T05:13:01.511Z,18.90
2018-10-11T05:15:32.341Z,18.90
2018-10-11T05:18:02.598Z,18.90
2018-10-11T05:20:32.667Z,19.00
2018-10-11T05:23:02.743Z,19.00
2018-10-11T05:25:33.052Z,19.00
2018-10-11T05:28:03.446Z,19.00
2018-10-11T05:30:34.106Z,19.00
2018-10-11T05:33:04.611Z,19.00
2018-10-11T05:35:34.716Z,19.00
2018-10-11T05:38:05.293Z,19.00
2018-10-11T05:40:35.612Z,19.00
2018-10-11T05:43:06.010Z,19.10
2018-10-11T05:45:37.588Z,19.10
2018-10-11T05:48:07.876Z,19.10
2018-10-11T05:50:38.211Z,19.10
2018-10-11T05:53:08.548Z,19.10
2018-10-11T05:55:38.949Z,19.20
2018-10-11T05:58:09.194Z,19.20
2018-10-11T06:00:39.639Z,19.20
2018-10-11T06:03:09.802Z,19.20
2018-10-11T06:05:40.112Z,19.30
2018-10-11T06:08:10.855Z,19.30
2018-10-11T06:10:42.843Z,19.30
2018-10-11T06:13:13.445Z,19.40
2018-10-11T06:15:43.887Z,19.50
2018-10-11T06:18:15.081Z,19.60
2018-10-11T06:20:48.390Z,19.60
2018-10-11T06:23:25.062Z,19.60
2018-10-11T06:25:55.208Z,19.70
2018-10-11T06:28:25.634Z,19.70
2018-10-11T06:30:55.832Z,19.80
2018-10-11T06:33:26.115Z,19.90
2018-10-11T06:35:57.234Z,20.00
2018-10-11T06:38:28.395Z,20.00
2018-10-11T06:40:59.730Z,20.00
2018-10-11T06:43:30.041Z,20.10
2018-10-11T06:46:00.677Z,20.10
2018-10-11T06:48:31.898Z,20.00
2018-10-11T06:51:09.133Z,20.00
2018-10-11T06:53:40.501Z,19.90
2018-10-11T06:56:10.884Z,19.90
2018-10-11T06:58:40.927Z,19.90
2018-10-11T07:01:11.546Z,19.90
2018-10-11T07:03:41.757Z,19.90
2018-10-11T07:06:12.085Z,20.00
2018-10-11T07:08:42.565Z,20.00
2018-10-11T07:11:13.012Z,20.10
2018-10-11T07:13:44.973Z,20.10
2018-10-11T07:16:15.236Z,20.20
2018-10-11T07:18:45.551Z,20.10
2018-10-11T07:21:15.809Z,20.20
2018-10-11T07:23:46.046Z,20.30
2018-10-11T07:26:16.172Z,20.30
2018-10-11T07:28:46.510Z,20.40
2018-10-11T07:31:16.895Z,20.40
2018-10-11T07:33:47.099Z,20.40
2018-10-11T07:36:17.172Z,20.40
2018-10-11T07:38:47.672Z,20.40
2018-10-11T07:41:17.914Z,20.40
2018-10-11T07:43:48.037Z,20.50
2018-10-11T07:46:18.688Z,20.50
2018-10-11T07:48:48.883Z,20.70
2018-10-11T07:51:19.324Z,20.80
2018-10-11T07:53:49.985Z,20.90
2018-10-11T07:56:20.136Z,20.90
2018-10-11T07:58:50.689Z,20.90
2018-10-11T08:01:21.479Z,20.90
2018-10-11T08:03:52.084Z,20.90
2018-10-11T08:06:22.210Z,20.90
2018-10-11T08:08:52.949Z,20.90
2018-10-11T08:11:23.610Z,21.00
2018-10-11T08:13:53.870Z,21.00
2018-10-11T08:16:24.235Z,21.10
2018-10-11T08:18:55.141Z,21.10
2018-10-11T08:21:26.138Z,21.10
2018-10-11T08:23:56.190Z,21.10
2018-10-11T08:26:26.686Z,21.20
2018-10-11T08:28:56.324Z,21.30
2018-10-11T08:31:33.446Z,21.40
2018-10-11T08:34:03.562Z,21.50
2018-10-11T08:36:33.787Z,21.70
2018-10-11T08:39:05.404Z,21.70
2018-10-11T08:41:36.661Z,21.90
2018-10-11T08:44:07.391Z,22.00
2018-10-11T08:46:37.998Z,22.10
2018-10-11T08:49:11.208Z,22.20
2018-10-11T08:51:41.289Z,22.30
2018-10-11T08:54:17.036Z,22.40
2018-10-11T08:56:47.451Z,22.50
2018-10-11T08:59:17.733Z,22.50
2018-10-11T09:04:15.759Z,22.60
2018-10-11T09:06:45.956Z,22.60
2018-10-11T09:09:16.290Z,22.60
2018-10-11T09:11:46.472Z,22.70
2018-10-11T09:14:16.711Z,22.70
2018-10-11T09:16:46.913Z,22.70
2018-10-11T09:19:17.739Z,22.70
2018-10-11T09:21:48.103Z,22.80
2018-10-11T09:24:18.193Z,22.80
2018-10-11T09:26:48.476Z,22.80
2018-10-11T09:29:18.767Z,22.90
2018-10-11T09:31:48.860Z,22.90
2018-10-11T09:34:19.100Z,22.90
2018-10-11T09:36:49.186Z,22.90
2018-10-11T09:39:19.386Z,22.90
2018-10-11T09:41:49.763Z,23.00
2018-10-11T09:44:20.172Z,23.00
2018-10-11T09:46:50.758Z,23.00
2018-10-11T09:49:21.940Z,23.00
2018-10-11T09:51:52.331Z,23.00
2018-10-11T09:54:22.604Z,22.90
2018-10-11T09:57:33.557Z,23.00
2018-10-11T10:00:09.419Z,22.90
2018-10-11T10:02:40.971Z,23.00
2018-10-11T10:23:13.068Z,23.60
2018-10-11T10:25:43.657Z,23.70
2018-10-11T10:28:14.095Z,23.80
2018-10-11T10:30:49.308Z,23.90
2018-10-11T10:33:19.391Z,23.90
2018-10-11T10:35:49.621Z,24.00
2018-10-11T10:38:20.309Z,23.90
2018-10-11T10:40:51.018Z,24.00
2018-10-11T10:43:21.835Z,24.00
2018-10-11T10:45:52.553Z,24.00
2018-10-11T10:48:22.818Z,24.10
2018-10-11T10:50:54.101Z,24.10
2018-10-11T10:53:25.402Z,24.20
2018-10-11T10:55:56.788Z,24.20
2018-10-11T10:58:29.291Z,24.30
2018-10-11T11:01:00.368Z,24.30
2018-10-11T11:03:30.432Z,24.30
2018-10-11T11:06:00.733Z,24.30
2018-10-11T11:08:30.907Z,24.30
2018-10-11T11:11:01.860Z,24.30
2018-10-11T11:13:32.321Z,24.40
2018-10-11T11:16:02.951Z,24.50
2018-10-11T11:18:33.693Z,24.60
2018-10-11T11:21:03.918Z,24.60
2018-10-11T11:23:34.085Z,24.70
2018-10-11T11:26:05.242Z,24.80
2018-10-11T11:28:35.700Z,24.80
2018-10-11T11:31:05.909Z,24.80
2018-10-11T11:33:36.165Z,24.80
2018-10-11T11:36:06.410Z,24.80
2018-10-11T11:38:36.604Z,24.80
2018-10-11T11:41:06.776Z,24.80
2018-10-11T11:43:37.116Z,24.90
2018-10-11T11:46:08.043Z,24.90
2018-10-11T11:48:38.164Z,24.90
2018-10-11T11:51:09.424Z,24.90
2018-10-11T11:53:40.745Z,24.80
2018-10-11T11:56:11.413Z,25.00
2018-10-11T11:58:42.150Z,25.00
2018-10-11T12:01:12.921Z,25.10
2018-10-11T12:03:49.982Z,25.10
2018-10-11T12:06:20.271Z,25.20
2018-10-11T12:08:50.736Z,25.20
2018-10-11T12:11:20.918Z,25.30
2018-10-11T12:13:52.619Z,25.30
2018-10-11T12:16:22.904Z,25.40
2018-10-11T12:18:53.238Z,25.40
2018-10-11T12:21:23.319Z,25.10
2018-10-11T12:23:54.326Z,25.50
2018-10-11T12:26:25.440Z,25.50
2018-10-11T12:28:55.881Z,25.60
2018-10-11T12:31:26.285Z,25.60
2018-10-11T12:33:56.401Z,25.70
2018-10-11T12:36:26.652Z,25.70
2018-10-11T12:38:57.228Z,25.70
2018-10-11T12:41:27.286Z,25.80
2018-10-11T12:43:57.949Z,25.80
2018-10-11T12:46:32.076Z,25.80
2018-10-11T12:49:00.748Z,25.80
2018-10-11T12:51:31.196Z,25.70
2018-10-11T12:54:01.397Z,25.70
2018-10-11T12:56:31.922Z,25.70
2018-10-11T12:59:01.986Z,25.70
2018-10-11T13:01:32.493Z,25.70
2018-10-11T13:04:02.574Z,25.70
2018-10-11T13:06:33.016Z,25.70
2018-10-11T13:09:03.429Z,25.70
2018-10-11T13:11:33.907Z,25.70
2018-10-11T13:14:04.397Z,25.70
2018-10-11T13:16:35.306Z,25.70
2018-10-11T13:19:05.766Z,25.70
2018-10-11T13:21:36.569Z,25.70
2018-10-11T13:24:06.855Z,25.70
2018-10-11T13:26:37.112Z,25.70
2018-10-11T13:29:07.475Z,25.80
2018-10-11T13:31:37.768Z,25.90
2018-10-11T13:34:08.609Z,26.00
2018-10-11T13:36:39.756Z,26.10
2018-10-11T13:39:11.051Z,26.20
2018-10-11T13:41:41.684Z,26.20
2018-10-11T13:44:11.893Z,26.30
2018-10-11T13:46:42.336Z,26.30
2018-10-11T13:49:12.829Z,26.30
2018-10-11T13:51:43.610Z,26.30
2018-10-11T13:54:17.566Z,26.30
2018-10-11T13:56:57.007Z,26.30
2018-10-11T13:59:21.443Z,26.20
2018-10-11T14:01:51.715Z,26.20
2018-10-11T14:04:23.085Z,26.20
2018-10-11T14:06:54.180Z,26.10
2018-10-11T14:09:24.578Z,26.10
2018-10-11T14:11:54.669Z,25.90
2018-10-11T14:14:25.237Z,26.00
2018-10-11T14:16:55.534Z,25.90
2018-10-11T14:19:25.848Z,25.90
2018-10-11T14:21:56.235Z,25.90
2018-10-11T14:24:27.259Z,25.80
2018-10-11T14:26:57.513Z,25.70
2018-10-11T14:29:27.692Z,25.60
2018-10-11T14:32:04.788Z,25.50
2018-10-11T14:34:35.291Z,25.30
2018-10-11T14:37:05.957Z,25.20
2018-10-11T14:39:36.341Z,25.10
2018-10-11T14:42:06.592Z,25.00
2018-10-11T14:44:36.954Z,25.00
2018-10-11T14:47:07.114Z,24.90
2018-10-11T14:49:37.434Z,24.90
2018-10-11T14:52:08.041Z,24.80
2018-10-11T14:54:38.320Z,24.80
2018-10-11T14:57:08.692Z,24.70
2018-10-11T14:59:39.917Z,24.60
2018-10-11T15:02:11.076Z,24.60
2018-10-11T15:04:41.302Z,24.60
2018-10-11T15:07:11.525Z,24.50
2018-10-11T15:09:41.881Z,24.40
2018-10-11T15:12:11.899Z,24.30
2018-10-11T15:14:42.263Z,24.30
2018-10-11T15:17:12.471Z,24.20
2018-10-11T15:19:42.871Z,24.20
2018-10-11T15:22:13.643Z,24.20
2018-10-11T15:24:43.993Z,24.10
2018-10-11T15:27:14.579Z,24.10
2018-10-11T15:29:45.099Z,24.10
2018-10-11T15:32:16.126Z,24.00
2018-10-11T15:34:46.526Z,24.00
2018-10-11T15:37:17.139Z,24.00
2018-10-11T15:39:48.032Z,23.90
2018-10-11T15:42:18.322Z,23.90
2018-10-11T15:44:48.548Z,23.90
2018-10-11T15:47:19.324Z,23.90
2018-10-11T15:49:49.554Z,23.90
2018-10-11T15:52:20.031Z,23.80
2018-10-11T15:54:51.329Z,23.80
2018-10-11T15:57:21.460Z,23.70
2018-10-11T15:59:51.859Z,23.70
2018-10-11T16:02:21.957Z,23.70
2018-10-11T16:04:52.267Z,23.70
2018-10-11T16:07:22.719Z,23.60
2018-10-11T16:09:53.027Z,23.60
2018-10-11T16:12:23.185Z,23.60
2018-10-11T16:14:53.724Z,23.60
2018-10-11T16:17:23.926Z,23.50
2018-10-11T16:19:54.596Z,23.50
2018-10-11T16:22:24.851Z,23.50
2018-10-11T16:24:55.312Z,23.50
2018-10-11T16:27:25.510Z,23.50
2018-10-11T16:29:56.098Z,23.60
2018-10-11T16:32:26.650Z,23.60
2018-10-11T16:34:56.752Z,23.60
2018-10-11T16:37:27.646Z,23.60
2018-10-11T16:39:57.889Z,23.60
2018-10-11T16:42:27.990Z,23.60
2018-10-11T16:44:58.149Z,23.50
2018-10-11T16:47:29.374Z,23.40
2018-10-11T16:49:59.697Z,23.40
2018-10-11T16:52:30.675Z,23.40
2018-10-11T16:55:00.914Z,23.40
2018-10-11T16:57:32.628Z,23.40
2018-10-11T17:00:04.100Z,23.40
2018-10-11T17:02:34.637Z,23.40
2018-10-11T17:05:05.343Z,23.40
2018-10-11T17:07:35.559Z,23.40
2018-10-11T17:10:06.960Z,23.40
2018-10-11T17:12:37.713Z,23.40
2018-10-11T17:15:08.583Z,23.40
2018-10-11T17:17:41.570Z,23.30
2018-10-11T17:20:12.091Z,23.30
2018-10-11T17:22:42.344Z,23.20
2018-10-11T17:25:12.576Z,23.10
2018-10-11T17:27:43.176Z,23.00
2018-10-11T17:30:14.766Z,22.90
2018-10-11T17:32:45.385Z,22.90
2018-10-11T17:35:15.901Z,22.90
2018-10-11T17:37:47.235Z,22.90
2018-10-11T17:40:17.787Z,22.90
2018-10-11T17:42:48.475Z,22.90
2018-10-11T17:45:19.590Z,22.80
2018-10-11T17:47:50.042Z,22.80
2018-10-11T17:50:21.000Z,22.80
2018-10-11T17:52:57.879Z,22.70
2018-10-11T17:55:28.374Z,22.60
2018-10-11T17:57:59.011Z,22.50
2018-10-11T18:00:29.947Z,22.40
2018-10-11T18:03:00.345Z,22.30
2018-10-11T18:05:31.100Z,22.20
2018-10-11T18:08:01.879Z,22.10
2018-10-11T18:10:33.058Z,22.00
2018-10-11T18:13:03.817Z,21.90
2018-10-11T18:15:35.487Z,21.80
2018-10-11T18:18:07.205Z,21.70
2018-10-11T18:20:39.205Z,21.70
2018-10-11T18:23:10.740Z,21.60
2018-10-11T18:25:41.482Z,21.60
2018-10-11T18:28:12.389Z,21.50
2018-10-11T18:30:42.911Z,21.50
2018-10-11T18:33:13.738Z,21.40
2018-10-11T18:35:44.240Z,21.40
2018-10-11T18:38:14.464Z,21.30
2018-10-11T18:40:45.113Z,21.20
2018-10-11T18:43:16.111Z,21.10
2018-10-11T18:45:47.283Z,21.00
2018-10-11T18:48:18.788Z,21.00
2018-10-11T18:50:50.214Z,20.70
2018-10-11T18:53:20.997Z,20.80
2018-10-11T18:55:51.328Z,20.70
2018-10-11T18:58:21.615Z,20.70
2018-10-11T19:00:52.286Z,20.70
2018-10-11T19:03:23.508Z,20.70
2018-10-11T19:05:53.740Z,20.60
2018-10-11T19:08:23.773Z,20.60
2018-10-11T19:10:54.154Z,20.50
2018-10-11T19:13:26.355Z,20.50
2018-10-11T19:15:57.045Z,20.50
2018-10-11T19:18:27.701Z,20.50
2018-10-11T19:20:58.267Z,20.40
2018-10-11T19:23:29.709Z,20.40
2018-10-11T19:25:59.818Z,20.40
2018-10-11T19:28:31.578Z,20.40
2018-10-11T19:31:03.741Z,20.40
2018-10-11T19:33:34.641Z,20.40
2018-10-11T19:36:04.689Z,20.30
2018-10-11T19:38:34.903Z,20.20
2018-10-11T19:41:05.830Z,20.10
2018-10-11T19:43:35.971Z,20.10
2018-10-11T19:46:06.445Z,20.00
2018-10-11T19:48:36.642Z,20.00
2018-10-11T19:51:07.060Z,19.90
2018-10-11T19:53:38.017Z,19.80
2018-10-11T19:56:08.249Z,19.70
2018-10-11T19:58:38.580Z,19.70
2018-10-11T20:01:08.639Z,19.70
2018-10-11T20:03:38.644Z,19.70
2018-10-11T20:06:08.912Z,19.60
2018-10-11T20:08:39.169Z,19.60
2018-10-11T20:11:09.616Z,19.60
2018-10-11T20:13:39.831Z,19.60
2018-10-11T20:16:10.144Z,19.60
2018-10-11T20:18:40.741Z,19.50
2018-10-11T20:21:12.057Z,19.50
2018-10-11T20:23:42.119Z,19.50
2018-10-11T20:26:12.496Z,19.50
2018-10-11T20:28:42.608Z,19.50
2018-10-11T20:31:13.632Z,19.50
2018-10-11T20:33:43.793Z,19.50
2018-10-11T20:36:14.529Z,19.50
2018-10-11T20:38:50.250Z,19.50
2018-10-11T20:41:20.531Z,19.50
2018-10-11T20:43:52.197Z,19.50
2018-10-11T20:46:22.307Z,19.40
2018-10-11T20:50:01.046Z,19.40
2018-10-11T20:52:36.222Z,19.20
2018-10-11T20:55:06.572Z,19.10
2018-10-11T20:57:36.808Z,19.10
2018-10-11T21:00:08.718Z,19.10
2018-10-11T21:02:38.940Z,19.10
2018-10-11T21:05:09.360Z,19.10
2018-10-11T21:07:40.656Z,19.10
2018-10-11T21:10:11.307Z,19.10
2018-10-11T21:12:41.601Z,19.20
2018-10-11T21:15:11.818Z,19.20
2018-10-11T21:17:43.870Z,19.20
2018-10-11T21:20:14.125Z,19.10
2018-10-11T21:22:44.407Z,19.10
2018-10-11T21:25:14.902Z,19.00
2018-10-11T21:27:44.898Z,18.90
2018-10-11T21:30:15.265Z,18.80
2018-10-11T21:32:45.597Z,18.70
2018-10-11T21:35:17.189Z,18.70
2018-10-11T21:37:49.270Z,18.60
2018-10-11T21:40:19.872Z,18.50
2018-10-11T21:42:51.457Z,18.50
2018-10-11T21:45:21.832Z,18.40
2018-10-11T21:47:52.428Z,18.30
2018-10-11T21:50:23.101Z,18.30
2018-10-11T21:52:53.271Z,18.20
2018-10-11T22:13:25.832Z,17.60
2018-10-11T22:15:56.276Z,17.60
2018-10-11T22:18:26.350Z,17.60
2018-10-11T22:20:56.501Z,17.60
2018-10-11T22:23:27.292Z,17.60
2018-10-11T22:25:57.539Z,17.60
2018-10-11T22:28:27.829Z,17.50
2018-10-11T22:30:57.976Z,17.50
2018-10-11T22:33:28.627Z,17.50
2018-10-11T22:35:59.180Z,17.40
2018-10-11T22:38:29.742Z,17.40
2018-10-11T22:41:01.553Z,17.40
2018-10-11T22:43:31.667Z,17.30
2018-10-11T22:46:04.286Z,17.30
2018-10-11T22:48:34.589Z,17.30
2018-10-11T22:51:05.451Z,17.30
2018-10-11T22:53:35.997Z,17.20
2018-10-11T22:56:06.404Z,17.20
2018-10-11T22:58:36.677Z,17.10
2018-10-11T23:01:07.168Z,17.10
2018-10-11T23:03:37.641Z,17.00
2018-10-11T23:06:07.815Z,17.00
2018-10-11T23:08:37.842Z,16.90
2018-10-11T23:11:08.162Z,16.90
2018-10-11T23:13:38.628Z,16.90
2018-10-11T23:16:09.587Z,16.80
2018-10-11T23:18:40.628Z,16.80
2018-10-11T23:21:11.368Z,16.70
2018-10-11T23:23:43.523Z,16.70
2018-10-11T23:26:14.109Z,16.60
2018-10-11T23:28:44.639Z,16.60
2018-10-11T23:31:21.607Z,16.50
2018-10-11T23:33:52.244Z,16.50
2018-10-11T23:36:22.764Z,16.40
2018-10-11T23:38:52.862Z,16.40
2018-10-11T23:41:23.722Z,16.40
2018-10-11T23:43:53.819Z,16.40
2018-10-11T23:46:24.449Z,16.50
2018-10-11T23:48:54.530Z,16.50
2018-10-11T23:51:24.727Z,16.60
2018-10-11T23:53:54.997Z,16.60
2018-10-11T23:56:25.581Z,16.60
2018-10-11T23:58:56.035Z,16.70
